createdAt,value
2022-12-03T00:01:13.794Z,4.26
2022-12-03T00:03:40.416Z,4.57
2022-12-03T00:06:07.119Z,4.27
2022-12-03T00:08:33.629Z,4.53
2022-12-03T00:11:00.184Z,4.63
2022-12-03T00:13:26.659Z,4.50
2022-12-03T00:15:53.234Z,3.72
2022-12-03T00:18:19.741Z,3.90
2022-12-03T00:20:46.186Z,4.01
2022-12-03T00:23:12.676Z,4.49
2022-12-03T00:25:39.181Z,4.57
2022-12-03T00:28:05.652Z,4.68
2022-12-03T00:30:32.216Z,4.75
2022-12-03T00:32:58.691Z,4.63
2022-12-03T00:35:25.175Z,4.05
2022-12-03T00:37:51.672Z,4.54
2022-12-03T00:40:18.158Z,4.62
2022-12-03T00:42:44.705Z,4.16
2022-12-03T00:45:11.405Z,4.84
2022-12-03T00:47:37.904Z,4.50
2022-12-03T00:50:05.607Z,4.81
2022-12-03T00:52:32.201Z,4.86
2022-12-03T00:54:58.676Z,5.02
2022-12-03T00:57:25.162Z,4.93
2022-12-03T00:59:51.602Z,5.15
2022-12-03T01:02:18.190Z,5.00
2022-12-03T01:04:44.743Z,4.96
2022-12-03T01:07:11.307Z,4.80
2022-12-03T01:09:38.741Z,4.28
2022-12-03T01:12:05.435Z,4.44
2022-12-03T01:14:31.896Z,4.63
2022-12-03T01:16:58.354Z,4.11
2022-12-03T01:19:25.465Z,4.67
2022-12-03T01:21:52.148Z,4.68
2022-12-03T01:24:19.392Z,4.70
2022-12-03T01:26:46.017Z,4.45
2022-12-03T01:29:12.575Z,4.64
2022-12-03T01:31:57.917Z,4.75
2022-12-03T01:34:24.435Z,4.95
2022-12-03T01:36:52.401Z,4.82
2022-12-03T01:39:19.629Z,4.57
2022-12-03T01:41:48.383Z,4.92
2022-12-03T01:44:22.904Z,4.97
2022-12-03T01:46:51.477Z,4.88
2022-12-03T01:49:25.095Z,4.68
2022-12-03T01:51:52.836Z,4.44
2022-12-03T01:54:25.086Z,4.72
2022-12-03T01:56:52.771Z,4.39
2022-12-03T01:59:21.543Z,4.45
2022-12-03T02:01:48.171Z,4.84
2022-12-03T02:04:17.154Z,4.89
2022-12-03T02:06:44.510Z,4.90
2022-12-03T02:09:12.688Z,4.93
2022-12-03T02:11:43.449Z,4.36
2022-12-03T02:14:18.179Z,5.03
2022-12-03T02:16:45.191Z,3.94
2022-12-03T02:19:31.874Z,4.53
2022-12-03T02:22:01.246Z,4.85
2022-12-03T02:24:42.497Z,4.51
2022-12-03T02:27:09.197Z,4.67
2022-12-03T02:29:36.135Z,4.56
2022-12-03T02:32:02.709Z,4.76
2022-12-03T02:34:41.370Z,4.92
2022-12-03T02:37:11.737Z,4.90
2022-12-03T02:39:42.616Z,4.60
2022-12-03T02:42:28.800Z,4.51
2022-12-03T02:45:00.644Z,4.93
2022-12-03T02:47:31.518Z,4.65
2022-12-03T02:49:58.859Z,4.56
2022-12-03T02:52:25.895Z,4.15
2022-12-03T02:54:52.949Z,4.49
2022-12-03T02:57:20.067Z,4.42
2022-12-03T02:59:46.685Z,4.22
2022-12-03T03:02:14.497Z,4.71
2022-12-03T03:04:43.454Z,4.35
2022-12-03T03:07:10.582Z,4.26
2022-12-03T03:09:37.338Z,4.72
2022-12-03T03:12:04.020Z,4.33
2022-12-03T03:14:32.509Z,4.05
2022-12-03T03:16:59.378Z,3.91
2022-12-03T03:19:26.602Z,4.29
2022-12-03T03:21:53.724Z,4.79
2022-12-03T03:24:22.020Z,4.80
2022-12-03T03:26:49.555Z,4.48
2022-12-03T03:29:16.291Z,4.19
2022-12-03T03:31:45.842Z,4.47
2022-12-03T03:34:13.351Z,4.73
2022-12-03T03:36:40.528Z,4.59
2022-12-03T03:39:07.263Z,4.10
2022-12-03T03:41:34.794Z,3.74
2022-12-03T03:44:01.689Z,4.11
2022-12-03T03:46:28.954Z,4.28
2022-12-03T03:48:55.722Z,4.39
2022-12-03T03:51:22.330Z,4.67
2022-12-03T03:53:50.343Z,4.50
2022-12-03T03:56:18.890Z,4.30
2022-12-03T03:58:45.390Z,4.25
2022-12-03T04:01:13.980Z,4.63
2022-12-03T04:03:41.030Z,4.59
2022-12-03T04:06:08.232Z,4.61
2022-12-03T04:08:34.704Z,4.71
2022-12-03T04:11:19.738Z,4.83
2022-12-03T04:13:46.215Z,4.87
2022-12-03T04:16:12.782Z,4.46
2022-12-03T04:18:44.999Z,3.90
2022-12-03T04:21:39.270Z,4.28
2022-12-03T04:24:07.131Z,4.20
2022-12-03T04:26:53.178Z,4.63
2022-12-03T04:29:20.611Z,4.25
2022-12-03T04:32:05.529Z,3.79
2022-12-03T04:34:51.125Z,3.69
2022-12-03T04:37:18.164Z,4.34
2022-12-03T04:39:44.628Z,4.35
2022-12-03T04:42:11.293Z,3.57
2022-12-03T04:44:37.932Z,4.23
2022-12-03T04:47:07.133Z,4.45
2022-12-03T04:49:35.174Z,4.44
2022-12-03T04:52:01.819Z,4.00
2022-12-03T04:54:29.136Z,4.24
2022-12-03T04:56:56.095Z,4.51
2022-12-03T04:59:22.922Z,3.93
2022-12-03T05:01:49.572Z,3.90
2022-12-03T05:04:16.647Z,3.58
2022-12-03T05:06:43.587Z,4.10
2022-12-03T05:09:10.688Z,3.55
2022-12-03T05:11:37.238Z,3.42
2022-12-03T05:14:04.044Z,3.04
2022-12-03T05:16:30.826Z,3.37
2022-12-03T05:18:57.403Z,3.98
2022-12-03T05:21:24.187Z,4.01
2022-12-03T05:23:50.872Z,3.94
2022-12-03T05:26:17.375Z,4.34
2022-12-03T05:28:44.254Z,4.28
2022-12-03T05:31:10.872Z,4.43
2022-12-03T05:33:43.782Z,3.78
2022-12-03T05:36:10.857Z,4.21
2022-12-03T05:38:37.423Z,3.82
2022-12-03T05:41:24.031Z,3.91
2022-12-03T05:43:51.073Z,4.23
2022-12-03T05:46:17.593Z,3.51
2022-12-03T05:48:44.221Z,4.04
2022-12-03T05:51:10.715Z,4.15
2022-12-03T05:53:37.174Z,4.12
2022-12-03T05:56:03.801Z,4.18
2022-12-03T05:58:30.241Z,3.32
2022-12-03T06:00:56.705Z,3.20
2022-12-03T06:03:23.470Z,3.36
2022-12-03T06:05:50.026Z,3.18
2022-12-03T06:08:16.515Z,3.36
2022-12-03T06:10:43.011Z,3.81
2022-12-03T06:13:09.466Z,3.48
2022-12-03T06:15:41.973Z,4.03
2022-12-03T06:18:10.123Z,3.71
2022-12-03T06:20:36.614Z,3.80
2022-12-03T06:23:03.106Z,3.65
2022-12-03T06:25:29.567Z,4.38
2022-12-03T06:27:56.044Z,4.11
2022-12-03T06:30:22.495Z,3.96
2022-12-03T06:32:48.967Z,3.43
2022-12-03T06:35:15.545Z,3.80
2022-12-03T06:37:41.983Z,3.97
2022-12-03T06:40:08.974Z,4.26
2022-12-03T06:42:35.430Z,4.26
2022-12-03T06:45:01.891Z,4.24
2022-12-03T06:47:29.616Z,3.90
2022-12-03T06:49:56.181Z,3.76
2022-12-03T06:52:22.655Z,3.92
2022-12-03T06:54:49.126Z,3.48
2022-12-03T06:57:16.208Z,3.75
2022-12-03T06:59:42.636Z,3.63
2022-12-03T07:02:09.861Z,3.85
2022-12-03T07:04:36.568Z,3.98
2022-12-03T07:07:03.164Z,3.40
2022-12-03T07:09:29.959Z,3.35
2022-12-03T07:11:57.124Z,3.67
2022-12-03T07:14:23.766Z,3.15
2022-12-03T07:16:50.222Z,3.31
2022-12-03T07:19:16.977Z,3.07
2022-12-03T07:21:43.478Z,2.88
2022-12-03T07:24:10.161Z,3.06
2022-12-03T07:26:36.842Z,3.64
2022-12-03T07:29:03.570Z,3.81
2022-12-03T07:31:30.246Z,3.03
2022-12-03T07:33:56.817Z,3.66
2022-12-03T07:36:23.315Z,3.32
2022-12-03T07:38:49.861Z,3.14
2022-12-03T07:41:16.366Z,3.69
2022-12-03T07:43:43.631Z,3.10
2022-12-03T07:46:10.159Z,3.54
2022-12-03T07:48:36.653Z,3.99
2022-12-03T07:51:03.275Z,3.44
2022-12-03T07:53:29.792Z,3.56
2022-12-03T07:55:56.276Z,3.30
2022-12-03T07:58:22.829Z,3.33
2022-12-03T08:00:49.397Z,3.41
2022-12-03T08:03:15.952Z,3.18
2022-12-03T08:05:42.435Z,3.43
2022-12-03T08:08:09.044Z,3.74
2022-12-03T08:10:35.603Z,3.42
2022-12-03T08:13:05.007Z,3.82
2022-12-03T08:15:37.219Z,3.08
2022-12-03T08:18:18.701Z,3.34
2022-12-03T08:20:48.063Z,2.82
2022-12-03T08:23:20.384Z,3.45
2022-12-03T08:25:47.909Z,3.28
2022-12-03T08:28:27.799Z,3.38
2022-12-03T08:31:12.005Z,3.47
2022-12-03T08:33:40.137Z,2.97
2022-12-03T08:36:18.647Z,3.44
2022-12-03T08:38:50.059Z,3.66
2022-12-03T08:41:37.717Z,4.06
2022-12-03T08:44:26.028Z,4.07
2022-12-03T08:47:16.347Z,2.69
2022-12-03T08:49:47.778Z,3.40
2022-12-03T08:52:20.407Z,3.03
2022-12-03T08:54:56.191Z,3.68
2022-12-03T08:57:34.615Z,3.11
2022-12-03T09:00:18.183Z,2.81
2022-12-03T09:02:47.714Z,3.06
2022-12-03T09:05:26.120Z,3.28
2022-12-03T09:07:52.629Z,3.40
2022-12-03T09:10:19.254Z,3.55
2022-12-03T09:12:45.737Z,3.10
2022-12-03T09:15:12.365Z,3.39
2022-12-03T09:17:38.954Z,3.59
2022-12-03T09:20:06.881Z,3.43
2022-12-03T09:22:33.420Z,3.44
2022-12-03T09:24:59.951Z,3.16
2022-12-03T09:27:26.494Z,3.22
2022-12-03T09:29:52.968Z,3.27
2022-12-03T09:32:19.608Z,3.45
2022-12-03T09:34:47.373Z,3.58
2022-12-03T09:37:13.960Z,3.54
2022-12-03T09:39:40.512Z,3.36
2022-12-03T09:42:07.433Z,3.56
2022-12-03T09:44:35.608Z,3.83
2022-12-03T09:47:03.027Z,3.69
2022-12-03T09:49:32.632Z,3.20
2022-12-03T09:52:01.750Z,4.15
2022-12-03T09:54:30.177Z,4.13
2022-12-03T09:57:00.742Z,4.32
2022-12-03T09:59:31.545Z,3.94
2022-12-03T10:01:58.534Z,4.31
2022-12-03T10:04:25.147Z,3.71
2022-12-03T10:06:51.688Z,3.88
2022-12-03T10:09:24.409Z,3.97
2022-12-03T10:11:51.077Z,3.73
2022-12-03T10:14:19.780Z,4.01
2022-12-03T10:16:46.646Z,4.39
2022-12-03T10:19:21.854Z,4.21
2022-12-03T10:21:48.463Z,4.17
2022-12-03T10:24:17.730Z,4.33
2022-12-03T10:26:46.095Z,4.10
2022-12-03T10:29:13.068Z,4.36
2022-12-03T10:31:39.622Z,4.20
2022-12-03T10:34:06.121Z,4.33
2022-12-03T10:36:33.157Z,4.47
2022-12-03T10:39:17.615Z,4.65
2022-12-03T10:41:44.765Z,4.39
2022-12-03T10:44:19.187Z,4.52
2022-12-03T10:47:03.901Z,4.79
2022-12-03T10:49:30.431Z,4.78
2022-12-03T10:51:57.158Z,4.82
2022-12-03T10:54:26.033Z,4.43
2022-12-03T10:56:53.079Z,4.54
2022-12-03T10:59:25.726Z,4.31
2022-12-03T11:01:52.529Z,4.04
2022-12-03T11:04:22.798Z,4.01
2022-12-03T11:06:50.377Z,4.45
2022-12-03T11:09:23.140Z,4.70
2022-12-03T11:11:49.895Z,4.33
2022-12-03T11:15:05.124Z,4.70
2022-12-03T11:17:43.576Z,4.74
2022-12-03T11:20:33.245Z,4.91
2022-12-03T11:22:59.991Z,4.96
2022-12-03T11:25:29.410Z,5.12
2022-12-03T11:28:14.497Z,4.49
2022-12-03T11:30:50.554Z,4.23
2022-12-03T11:33:21.689Z,4.12
2022-12-03T11:36:02.732Z,4.24
2022-12-03T11:38:38.370Z,4.24
2022-12-03T11:41:32.786Z,4.11
2022-12-03T11:44:19.663Z,4.25
2022-12-03T11:46:47.217Z,4.24
2022-12-03T11:49:23.267Z,4.36
2022-12-03T11:51:50.332Z,4.23
2022-12-03T11:54:18.825Z,4.22
2022-12-03T11:56:48.870Z,4.19
2022-12-03T11:59:17.165Z,4.08
2022-12-03T12:01:44.581Z,3.75
2022-12-03T12:04:32.531Z,3.88
2022-12-03T12:06:59.506Z,3.90
2022-12-03T12:09:52.471Z,3.94
2022-12-03T12:12:51.135Z,4.09
2022-12-03T12:15:53.604Z,4.07
2022-12-03T12:18:41.064Z,3.91
2022-12-03T12:21:47.640Z,3.87
2022-12-03T12:24:33.225Z,3.78
2022-12-03T12:27:12.001Z,3.84
2022-12-03T12:29:40.298Z,3.69
2022-12-03T12:32:12.802Z,3.73
2022-12-03T12:34:41.897Z,3.73
2022-12-03T12:37:23.377Z,3.60
2022-12-03T12:39:54.993Z,3.60
2022-12-03T12:42:27.982Z,3.67
2022-12-03T12:44:56.451Z,3.70
2022-12-03T12:47:23.102Z,3.62
2022-12-03T12:49:51.843Z,3.73
2022-12-03T12:52:18.619Z,3.48
2022-12-03T12:54:45.178Z,3.62
2022-12-03T12:57:20.534Z,3.78
2022-12-03T12:59:47.228Z,3.86
2022-12-03T13:02:26.363Z,3.72
2022-12-03T13:04:53.209Z,3.60
2022-12-03T13:07:19.727Z,3.69
2022-12-03T13:09:46.222Z,3.65
2022-12-03T13:12:21.457Z,3.63
2022-12-03T13:14:47.970Z,3.64
2022-12-03T13:17:19.171Z,3.84
2022-12-03T13:19:49.391Z,3.62
2022-12-03T13:22:21.290Z,3.52
2022-12-03T13:24:52.632Z,3.67
2022-12-03T13:27:25.810Z,3.73
2022-12-03T13:30:06.848Z,3.85
2022-12-03T13:32:33.932Z,4.22
2022-12-03T13:35:09.806Z,3.99
2022-12-03T13:37:37.317Z,3.70
2022-12-03T13:40:36.241Z,3.55
2022-12-03T13:43:18.459Z,3.67
2022-12-03T13:45:45.218Z,4.00
2022-12-03T13:48:31.843Z,4.10
2022-12-03T13:51:12.773Z,3.96
2022-12-03T13:53:40.315Z,4.21
2022-12-03T13:56:27.608Z,4.11
2022-12-03T13:58:55.346Z,3.60
2022-12-03T14:01:22.056Z,3.41
2022-12-03T14:03:49.739Z,3.36
2022-12-03T14:06:16.894Z,3.18
2022-12-03T14:08:43.391Z,3.41
2022-12-03T14:11:29.932Z,3.61
2022-12-03T14:13:56.419Z,3.64
2022-12-03T14:16:23.406Z,3.60
2022-12-03T14:18:49.992Z,3.37
2022-12-03T14:21:16.438Z,3.53
2022-12-03T14:23:42.915Z,3.51
2022-12-03T14:26:09.889Z,3.31
2022-12-03T14:28:36.380Z,3.39
2022-12-03T14:31:02.834Z,3.39
2022-12-03T14:33:29.309Z,3.27
2022-12-03T14:35:56.248Z,3.64
2022-12-03T14:38:22.793Z,3.82
2022-12-03T14:40:49.289Z,3.90
2022-12-03T14:43:15.831Z,3.88
2022-12-03T14:45:42.402Z,3.71
2022-12-03T14:48:08.922Z,3.89
2022-12-03T14:50:35.393Z,3.59
2022-12-03T14:53:01.943Z,3.92
2022-12-03T14:55:28.447Z,3.85
2022-12-03T14:57:54.885Z,3.60
2022-12-03T15:00:21.722Z,3.79
2022-12-03T15:02:48.255Z,3.35
2022-12-03T15:05:14.775Z,3.51
2022-12-03T15:07:41.383Z,3.78
2022-12-03T15:10:08.317Z,4.19
2022-12-03T15:12:34.830Z,3.94
2022-12-03T15:15:01.334Z,3.71
2022-12-03T15:17:31.994Z,3.79
2022-12-03T15:19:58.845Z,4.05
2022-12-03T15:22:25.340Z,3.97
2022-12-03T15:24:51.797Z,3.81
2022-12-03T15:27:18.303Z,3.86
2022-12-03T15:29:44.757Z,3.95
2022-12-03T15:32:11.229Z,3.96
2022-12-03T15:34:37.738Z,4.24
2022-12-03T15:37:04.253Z,3.88
2022-12-03T15:39:30.841Z,3.73
2022-12-03T15:41:57.341Z,4.43
2022-12-03T15:44:23.910Z,4.13
2022-12-03T15:46:50.397Z,4.55
2022-12-03T15:49:16.945Z,4.38
2022-12-03T15:51:43.449Z,4.59
2022-12-03T15:54:12.058Z,4.25
2022-12-03T15:56:38.645Z,4.20
2022-12-03T15:59:05.165Z,4.49
2022-12-03T16:01:31.736Z,4.26
2022-12-03T16:03:58.304Z,4.49
2022-12-03T16:06:24.920Z,4.46
2022-12-03T16:08:51.382Z,4.22
2022-12-03T16:11:17.864Z,3.88
2022-12-03T16:13:44.598Z,4.04
2022-12-03T16:16:11.152Z,4.56
2022-12-03T16:18:37.785Z,4.21
2022-12-03T16:21:04.358Z,4.43
2022-12-03T16:23:30.862Z,4.53
2022-12-03T16:25:57.327Z,4.41
2022-12-03T16:28:23.894Z,4.33
2022-12-03T16:30:50.477Z,4.64
2022-12-03T16:33:20.095Z,3.72
2022-12-03T16:35:48.952Z,3.73
2022-12-03T16:38:15.414Z,3.83
2022-12-03T16:40:41.914Z,4.20
2022-12-03T16:43:10.534Z,3.79
2022-12-03T16:45:55.868Z,3.83
2022-12-03T16:48:22.975Z,3.75
2022-12-03T16:50:49.483Z,3.69
2022-12-03T16:53:16.059Z,4.15
2022-12-03T16:55:42.548Z,3.84
2022-12-03T16:58:09.136Z,4.14
2022-12-03T17:00:35.574Z,3.92
2022-12-03T17:03:02.241Z,4.14
2022-12-03T17:05:28.851Z,3.99
2022-12-03T17:07:55.471Z,4.12
2022-12-03T17:10:21.974Z,4.15
2022-12-03T17:13:08.671Z,4.08
2022-12-03T17:15:35.071Z,3.79
2022-12-03T17:18:03.539Z,4.16
2022-12-03T17:20:31.112Z,4.30
2022-12-03T17:22:58.673Z,4.34
2022-12-03T17:25:25.825Z,4.22
2022-12-03T17:27:53.006Z,3.57
2022-12-03T17:30:19.969Z,3.86
2022-12-03T17:32:46.786Z,4.14
2022-12-03T17:35:13.502Z,4.32
2022-12-03T17:37:40.171Z,4.08
2022-12-03T17:40:09.613Z,3.96
2022-12-03T17:42:36.168Z,4.56
2022-12-03T17:45:03.164Z,4.13
2022-12-03T17:47:29.831Z,3.60
2022-12-03T17:49:56.616Z,3.95
2022-12-03T17:52:23.320Z,3.60
2022-12-03T17:55:09.689Z,3.53
2022-12-03T17:57:36.296Z,3.41
2022-12-03T18:00:03.214Z,3.80
2022-12-03T18:02:38.624Z,4.17
2022-12-03T18:05:05.433Z,4.30
2022-12-03T18:07:32.047Z,4.16
2022-12-03T18:09:58.698Z,3.86
2022-12-03T18:12:25.456Z,3.75
2022-12-03T18:14:52.016Z,3.95
2022-12-03T18:17:18.476Z,4.25
2022-12-03T18:19:44.979Z,4.01
2022-12-03T18:22:12.594Z,3.53
2022-12-03T18:24:39.178Z,3.83
2022-12-03T18:27:05.946Z,3.63
2022-12-03T18:29:32.446Z,4.15
2022-12-03T18:31:59.154Z,3.67
2022-12-03T18:34:25.690Z,3.88
2022-12-03T18:36:52.371Z,3.77
2022-12-03T18:39:26.318Z,3.62
2022-12-03T18:41:53.930Z,3.58
2022-12-03T18:44:20.902Z,4.02
2022-12-03T18:46:55.046Z,3.63
2022-12-03T18:49:22.238Z,3.13
2022-12-03T18:51:50.403Z,3.39
2022-12-03T18:54:18.701Z,3.33
2022-12-03T18:56:45.201Z,3.73
2022-12-03T18:59:12.167Z,3.61
2022-12-03T19:01:38.680Z,3.15
2022-12-03T19:04:05.197Z,3.39
2022-12-03T19:06:32.058Z,3.68
2022-12-03T19:08:58.606Z,3.41
2022-12-03T19:11:25.190Z,3.19
2022-12-03T19:13:52.067Z,3.17
2022-12-03T19:16:18.817Z,3.32
2022-12-03T19:18:45.475Z,3.72
2022-12-03T19:21:14.832Z,3.50
2022-12-03T19:23:47.257Z,3.83
2022-12-03T19:26:25.664Z,3.31
2022-12-03T19:28:53.768Z,3.78
2022-12-03T19:31:20.530Z,3.86
2022-12-03T19:33:47.418Z,3.83
2022-12-03T19:36:28.470Z,3.78
2022-12-03T19:38:57.605Z,3.81
2022-12-03T19:41:27.233Z,4.21
2022-12-03T19:43:55.835Z,3.28
2022-12-03T19:46:24.620Z,3.32
2022-12-03T19:48:51.633Z,3.63
2022-12-03T19:51:34.182Z,3.45
2022-12-03T19:54:03.236Z,3.54
2022-12-03T19:56:30.406Z,3.09
2022-12-03T19:58:57.892Z,3.30
2022-12-03T20:01:26.807Z,3.57
2022-12-03T20:03:55.794Z,4.04
2022-12-03T20:06:25.905Z,3.56
2022-12-03T20:09:00.399Z,3.15
2022-12-03T20:11:29.851Z,3.58
2022-12-03T20:13:58.888Z,3.59
2022-12-03T20:16:26.215Z,3.64
2022-12-03T20:18:57.936Z,3.54
2022-12-03T20:21:24.620Z,3.57
2022-12-03T20:23:51.196Z,3.46
2022-12-03T20:26:20.927Z,3.46
2022-12-03T20:28:48.197Z,3.91
2022-12-03T20:31:17.708Z,3.46
2022-12-03T20:33:47.048Z,3.79
2022-12-03T20:36:15.192Z,3.19
2022-12-03T20:38:42.441Z,3.31
2022-12-03T20:41:12.760Z,3.61
2022-12-03T20:43:39.778Z,3.75
2022-12-03T20:46:25.427Z,3.48
2022-12-03T20:48:53.956Z,3.91
2022-12-03T20:51:22.601Z,3.68
2022-12-03T20:53:49.139Z,3.59
2022-12-03T20:56:27.875Z,3.88
2022-12-03T20:58:54.496Z,3.78
2022-12-03T21:01:23.766Z,3.77
2022-12-03T21:03:51.996Z,3.45
2022-12-03T21:06:18.880Z,3.90
2022-12-03T21:08:46.048Z,3.71
2022-12-03T21:11:16.681Z,3.53
2022-12-03T21:13:43.887Z,3.79
2022-12-03T21:16:17.298Z,3.96
2022-12-03T21:18:44.373Z,3.93
2022-12-03T21:21:12.516Z,3.59
2022-12-03T21:23:39.041Z,4.16
2022-12-03T21:26:08.018Z,3.91
2022-12-03T21:28:35.034Z,3.79
2022-12-03T21:31:03.917Z,3.22
2022-12-03T21:33:31.323Z,3.81
2022-12-03T21:35:59.125Z,3.86
2022-12-03T21:38:27.315Z,3.54
2022-12-03T21:40:54.350Z,3.80
2022-12-03T21:43:21.714Z,3.51
2022-12-03T21:45:49.165Z,3.47
2022-12-03T21:48:16.829Z,3.63
2022-12-03T21:50:44.344Z,3.51
2022-12-03T21:53:11.427Z,3.32
2022-12-03T21:55:40.406Z,3.43
2022-12-03T21:58:09.916Z,3.41
2022-12-03T22:00:36.492Z,3.92
2022-12-03T22:03:03.088Z,4.04
2022-12-03T22:05:29.682Z,4.09
2022-12-03T22:07:56.311Z,4.09
2022-12-03T22:10:22.853Z,3.80
2022-12-03T22:12:49.417Z,3.73
2022-12-03T22:15:19.137Z,3.78
2022-12-03T22:17:46.217Z,3.23
2022-12-03T22:20:12.975Z,3.82
2022-12-03T22:22:39.536Z,3.89
2022-12-03T22:25:06.195Z,3.99
2022-12-03T22:27:32.814Z,3.29
2022-12-03T22:29:59.367Z,3.72
2022-12-03T22:32:25.917Z,3.27
2022-12-03T22:34:52.501Z,3.48
2022-12-03T22:37:19.098Z,3.76
2022-12-03T22:39:45.632Z,3.53
2022-12-03T22:42:12.217Z,3.70
2022-12-03T22:44:38.792Z,3.75
2022-12-03T22:47:05.601Z,3.80
2022-12-03T22:49:32.070Z,4.09
2022-12-03T22:51:58.615Z,4.13
2022-12-03T22:54:25.100Z,4.09
2022-12-03T22:56:51.593Z,3.74
2022-12-03T22:59:18.085Z,3.61
2022-12-03T23:01:44.553Z,3.84
2022-12-03T23:04:11.675Z,3.94
2022-12-03T23:06:38.735Z,3.88
2022-12-03T23:09:06.729Z,4.06
2022-12-03T23:11:33.693Z,4.00
2022-12-03T23:14:00.228Z,3.75
2022-12-03T23:16:32.586Z,3.64
2022-12-03T23:19:00.542Z,3.86
2022-12-03T23:21:30.744Z,4.01
2022-12-03T23:24:02.431Z,3.81
2022-12-03T23:26:29.507Z,3.82
2022-12-03T23:28:56.546Z,3.91
2022-12-03T23:31:29.624Z,3.57
2022-12-03T23:33:57.148Z,3.66
2022-12-03T23:36:25.663Z,4.11
2022-12-03T23:38:52.461Z,4.07
2022-12-03T23:41:21.539Z,3.83
2022-12-03T23:43:48.173Z,4.14
2022-12-03T23:46:19.126Z,4.00
2022-12-03T23:48:45.717Z,3.78
2022-12-03T23:51:17.934Z,3.56
2022-12-03T23:53:44.820Z,3.41
2022-12-03T23:56:17.450Z,3.78
2022-12-03T23:58:44.826Z,3.43
